sensor_id;sensor_type;location;lat;lon;timestamp;P1;durP1;ratioP1;P2;durP2;ratioP2
479;SDS011;226;48.606;9.096;2023-03-17T00:01:21;3.70;;;3.40;;
479;SDS011;226;48.606;9.096;2023-03-17T00:03:50;3.00;;;2.43;;
479;SDS011;226;48.606;9.096;2023-03-17T00:06:20;2.30;;;2.17;;
479;SDS011;226;48.606;9.096;2023-03-17T00:08:54;2.20;;;2.03;;
479;SDS011;226;48.606;9.096;2023-03-17T00:11:23;2.37;;;2.17;;
479;SDS011;226;48.606;9.096;2023-03-17T00:13:54;1.80;;;1.70;;
479;SDS011;226;48.606;9.096;2023-03-17T00:16:23;3.27;;;3.00;;
479;SDS011;226;48.606;9.096;2023-03-17T00:18:53;2.50;;;2.33;;
479;SDS011;226;48.606;9.096;2023-03-17T00:21:24;2.77;;;2.67;;
479;SDS011;226;48.606;9.096;2023-03-17T00:23:54;4.10;;;3.30;;
479;SDS011;226;48.606;9.096;2023-03-17T00:26:23;2.63;;;2.43;;
479;SDS011;226;48.606;9.096;2023-03-17T00:28:52;2.73;;;2.53;;
479;SDS011;226;48.606;9.096;2023-03-17T00:31:22;3.40;;;3.10;;
479;SDS011;226;48.606;9.096;2023-03-17T00:33:52;2.70;;;2.60;;
479;SDS011;226;48.606;9.096;2023-03-17T00:36:21;2.70;;;2.53;;
479;SDS011;226;48.606;9.096;2023-03-17T00:38:53;9.73;;;2.77;;
479;SDS011;226;48.606;9.096;2023-03-17T00:41:22;3.63;;;2.97;;
479;SDS011;226;48.606;9.096;2023-03-17T00:43:50;2.20;;;2.10;;
479;SDS011;226;48.606;9.096;2023-03-17T00:46:19;2.57;;;2.40;;
479;SDS011;226;48.606;9.096;2023-03-17T00:48:53;2.87;;;2.67;;
479;SDS011;226;48.606;9.096;2023-03-17T00:51:21;2.70;;;2.50;;
479;SDS011;226;48.606;9.096;2023-03-17T00:53:49;3.90;;;3.60;;
479;SDS011;226;48.606;9.096;2023-03-17T00:56:18;2.60;;;1.80;;
479;SDS011;226;48.606;9.096;2023-03-17T00:58:47;2.37;;;2.17;;
479;SDS011;226;48.606;9.096;2023-03-17T01:01:15;3.07;;;2.97;;
479;SDS011;226;48.606;9.096;2023-03-17T01:03:46;4.00;;;3.07;;
479;SDS011;226;48.606;9.096;2023-03-17T01:06:14;3.10;;;2.80;;
479;SDS011;226;48.606;9.096;2023-03-17T01:08:43;4.47;;;2.67;;
479;SDS011;226;48.606;9.096;2023-03-17T01:11:13;5.73;;;3.40;;
479;SDS011;226;48.606;9.096;2023-03-17T01:13:44;3.67;;;3.47;;
479;SDS011;226;48.606;9.096;2023-03-17T01:16:13;7.40;;;3.90;;
479;SDS011;226;48.606;9.096;2023-03-17T01:18:42;2.93;;;2.73;;
479;SDS011;226;48.606;9.096;2023-03-17T01:21:12;5.80;;;3.60;;
479;SDS011;226;48.606;9.096;2023-03-17T01:23:40;5.00;;;2.93;;
479;SDS011;226;48.606;9.096;2023-03-17T01:26:09;2.90;;;2.63;;
479;SDS011;226;48.606;9.096;2023-03-17T01:28:37;2.63;;;2.53;;
479;SDS011;226;48.606;9.096;2023-03-17T01:31:05;3.47;;;2.77;;
479;SDS011;226;48.606;9.096;2023-03-17T01:33:34;2.80;;;2.13;;
479;SDS011;226;48.606;9.096;2023-03-17T01:36:03;4.77;;;2.97;;
479;SDS011;226;48.606;9.096;2023-03-17T01:38:33;16.43;;;3.20;;
479;SDS011;226;48.606;9.096;2023-03-17T01:41:01;3.47;;;2.90;;
479;SDS011;226;48.606;9.096;2023-03-17T01:43:30;3.13;;;2.90;;
479;SDS011;226;48.606;9.096;2023-03-17T01:46:15;2.80;;;2.70;;
479;SDS011;226;48.606;9.096;2023-03-17T01:48:49;5.20;;;2.77;;
479;SDS011;226;48.606;9.096;2023-03-17T01:51:23;2.23;;;2.13;;
479;SDS011;226;48.606;9.096;2023-03-17T01:53:56;3.60;;;2.90;;
479;SDS011;226;48.606;9.096;2023-03-17T01:56:26;2.27;;;2.17;;
479;SDS011;226;48.606;9.096;2023-03-17T01:58:55;2.90;;;2.60;;
479;SDS011;226;48.606;9.096;2023-03-17T02:01:28;2.27;;;2.20;;
479;SDS011;226;48.606;9.096;2023-03-17T02:04:00;3.13;;;2.37;;
479;SDS011;226;48.606;9.096;2023-03-17T02:06:28;2.40;;;2.20;;
479;SDS011;226;48.606;9.096;2023-03-17T02:08:58;3.80;;;3.17;;
479;SDS011;226;48.606;9.096;2023-03-17T02:11:27;2.40;;;2.20;;
479;SDS011;226;48.606;9.096;2023-03-17T02:13:56;2.80;;;2.60;;
479;SDS011;226;48.606;9.096;2023-03-17T02:16:24;5.07;;;2.93;;
479;SDS011;226;48.606;9.096;2023-03-17T02:18:53;2.60;;;2.40;;
479;SDS011;226;48.606;9.096;2023-03-17T02:21:30;2.70;;;2.50;;
479;SDS011;226;48.606;9.096;2023-03-17T02:24:08;2.60;;;2.40;;
479;SDS011;226;48.606;9.096;2023-03-17T02:26:46;2.17;;;2.10;;
479;SDS011;226;48.606;9.096;2023-03-17T02:29:15;1.80;;;1.80;;
479;SDS011;226;48.606;9.096;2023-03-17T02:31:46;2.53;;;2.43;;
479;SDS011;226;48.606;9.096;2023-03-17T02:34:14;2.27;;;2.10;;
479;SDS011;226;48.606;9.096;2023-03-17T02:36:44;2.00;;;1.93;;
479;SDS011;226;48.606;9.096;2023-03-17T02:39:12;2.40;;;2.20;;
479;SDS011;226;48.606;9.096;2023-03-17T02:41:40;2.20;;;2.10;;
479;SDS011;226;48.606;9.096;2023-03-17T02:44:09;2.67;;;2.43;;
479;SDS011;226;48.606;9.096;2023-03-17T02:46:37;3.47;;;3.27;;
479;SDS011;226;48.606;9.096;2023-03-17T02:49:05;3.20;;;2.90;;
479;SDS011;226;48.606;9.096;2023-03-17T02:51:33;3.40;;;3.20;;
479;SDS011;226;48.606;9.096;2023-03-17T02:54:03;2.47;;;2.27;;
479;SDS011;226;48.606;9.096;2023-03-17T02:56:31;2.00;;;1.90;;
479;SDS011;226;48.606;9.096;2023-03-17T02:58:59;3.20;;;2.73;;
479;SDS011;226;48.606;9.096;2023-03-17T03:01:27;2.20;;;2.20;;
479;SDS011;226;48.606;9.096;2023-03-17T03:03:56;2.83;;;2.43;;
479;SDS011;226;48.606;9.096;2023-03-17T03:06:24;10.90;;;4.67;;
479;SDS011;226;48.606;9.096;2023-03-17T03:08:52;5.97;;;4.10;;
479;SDS011;226;48.606;9.096;2023-03-17T03:11:22;4.90;;;4.60;;
479;SDS011;226;48.606;9.096;2023-03-17T03:13:50;4.47;;;3.87;;
479;SDS011;226;48.606;9.096;2023-03-17T03:16:18;7.20;;;5.03;;
479;SDS011;226;48.606;9.096;2023-03-17T03:18:47;20.63;;;4.60;;
479;SDS011;226;48.606;9.096;2023-03-17T03:21:15;4.77;;;2.97;;
479;SDS011;226;48.606;9.096;2023-03-17T03:23:43;2.60;;;2.40;;
479;SDS011;226;48.606;9.096;2023-03-17T03:26:11;2.47;;;2.37;;
479;SDS011;226;48.606;9.096;2023-03-17T03:28:41;2.27;;;2.20;;
479;SDS011;226;48.606;9.096;2023-03-17T03:31:09;3.47;;;3.00;;
479;SDS011;226;48.606;9.096;2023-03-17T03:33:39;3.90;;;2.80;;
479;SDS011;226;48.606;9.096;2023-03-17T03:36:07;2.10;;;2.00;;
479;SDS011;226;48.606;9.096;2023-03-17T03:38:36;4.30;;;3.50;;
479;SDS011;226;48.606;9.096;2023-03-17T03:41:04;3.10;;;2.90;;
479;SDS011;226;48.606;9.096;2023-03-17T03:43:32;10.13;;;2.10;;
479;SDS011;226;48.606;9.096;2023-03-17T03:46:02;2.43;;;2.20;;
479;SDS011;226;48.606;9.096;2023-03-17T03:48:30;13.13;;;3.67;;
479;SDS011;226;48.606;9.096;2023-03-17T03:51:00;3.23;;;3.03;;
479;SDS011;226;48.606;9.096;2023-03-17T03:53:29;1.67;;;1.67;;
479;SDS011;226;48.606;9.096;2023-03-17T03:55:57;2.90;;;2.80;;
479;SDS011;226;48.606;9.096;2023-03-17T03:58:25;5.17;;;2.27;;
479;SDS011;226;48.606;9.096;2023-03-17T04:00:53;4.03;;;3.73;;
479;SDS011;226;48.606;9.096;2023-03-17T04:03:23;1.83;;;1.73;;
479;SDS011;226;48.606;9.096;2023-03-17T04:05:52;3.37;;;3.17;;
479;SDS011;226;48.606;9.096;2023-03-17T04:08:20;4.23;;;3.83;;
479;SDS011;226;48.606;9.096;2023-03-17T04:10:48;6.23;;;3.80;;
479;SDS011;226;48.606;9.096;2023-03-17T04:13:16;3.67;;;3.00;;
479;SDS011;226;48.606;9.096;2023-03-17T04:15:44;2.50;;;2.33;;
479;SDS011;226;48.606;9.096;2023-03-17T04:18:12;3.70;;;2.90;;
479;SDS011;226;48.606;9.096;2023-03-17T04:20:42;4.70;;;3.63;;
479;SDS011;226;48.606;9.096;2023-03-17T04:23:10;4.03;;;3.63;;
479;SDS011;226;48.606;9.096;2023-03-17T04:25:38;2.37;;;2.17;;
479;SDS011;226;48.606;9.096;2023-03-17T04:28:06;2.17;;;2.00;;
479;SDS011;226;48.606;9.096;2023-03-17T04:30:35;2.77;;;2.57;;
479;SDS011;226;48.606;9.096;2023-03-17T04:33:03;3.07;;;2.97;;
479;SDS011;226;48.606;9.096;2023-03-17T04:35:32;3.73;;;3.47;;
479;SDS011;226;48.606;9.096;2023-03-17T04:38:02;7.67;;;2.70;;
479;SDS011;226;48.606;9.096;2023-03-17T04:40:30;2.87;;;2.67;;
479;SDS011;226;48.606;9.096;2023-03-17T04:42:58;5.47;;;3.30;;
479;SDS011;226;48.606;9.096;2023-03-17T04:45:28;2.17;;;2.07;;
479;SDS011;226;48.606;9.096;2023-03-17T04:47:57;2.30;;;2.20;;
479;SDS011;226;48.606;9.096;2023-03-17T04:50:25;3.13;;;2.67;;
479;SDS011;226;48.606;9.096;2023-03-17T04:52:53;10.30;;;5.40;;
479;SDS011;226;48.606;9.096;2023-03-17T04:55:22;3.73;;;3.53;;
479;SDS011;226;48.606;9.096;2023-03-17T04:57:51;4.77;;;3.63;;
479;SDS011;226;48.606;9.096;2023-03-17T05:00:19;5.17;;;2.90;;
479;SDS011;226;48.606;9.096;2023-03-17T05:02:47;3.90;;;2.30;;
479;SDS011;226;48.606;9.096;2023-03-17T05:05:16;2.97;;;2.80;;
479;SDS011;226;48.606;9.096;2023-03-17T05:07:44;2.27;;;2.17;;
479;SDS011;226;48.606;9.096;2023-03-17T05:10:12;4.87;;;2.43;;
479;SDS011;226;48.606;9.096;2023-03-17T05:12:42;4.80;;;3.03;;
479;SDS011;226;48.606;9.096;2023-03-17T05:15:10;3.40;;;3.20;;
479;SDS011;226;48.606;9.096;2023-03-17T05:17:38;3.53;;;2.70;;
479;SDS011;226;48.606;9.096;2023-03-17T05:20:07;4.00;;;3.30;;
479;SDS011;226;48.606;9.096;2023-03-17T05:22:36;6.43;;;3.40;;
479;SDS011;226;48.606;9.096;2023-03-17T05:25:04;2.20;;;2.10;;
479;SDS011;226;48.606;9.096;2023-03-17T05:27:33;11.60;;;2.67;;
479;SDS011;226;48.606;9.096;2023-03-17T05:30:03;2.80;;;2.60;;
479;SDS011;226;48.606;9.096;2023-03-17T05:32:31;2.80;;;2.60;;
479;SDS011;226;48.606;9.096;2023-03-17T05:34:59;2.93;;;2.73;;
479;SDS011;226;48.606;9.096;2023-03-17T05:37:28;2.57;;;2.37;;
479;SDS011;226;48.606;9.096;2023-03-17T05:39:56;3.83;;;3.53;;
479;SDS011;226;48.606;9.096;2023-03-17T05:42:24;3.70;;;3.50;;
479;SDS011;226;48.606;9.096;2023-03-17T05:44:53;3.50;;;2.90;;
479;SDS011;226;48.606;9.096;2023-03-17T05:47:23;4.83;;;2.17;;
479;SDS011;226;48.606;9.096;2023-03-17T05:49:51;2.20;;;2.10;;
479;SDS011;226;48.606;9.096;2023-03-17T05:52:19;9.27;;;3.10;;
479;SDS011;226;48.606;9.096;2023-03-17T05:54:47;3.33;;;3.13;;
479;SDS011;226;48.606;9.096;2023-03-17T05:57:17;4.67;;;4.20;;
479;SDS011;226;48.606;9.096;2023-03-17T05:59:46;5.57;;;4.50;;
479;SDS011;226;48.606;9.096;2023-03-17T06:02:14;5.03;;;4.33;;
479;SDS011;226;48.606;9.096;2023-03-17T06:04:44;8.27;;;4.80;;
479;SDS011;226;48.606;9.096;2023-03-17T06:07:12;6.10;;;5.07;;
479;SDS011;226;48.606;9.096;2023-03-17T06:09:40;6.53;;;4.53;;
479;SDS011;226;48.606;9.096;2023-03-17T06:12:08;7.47;;;4.57;;
479;SDS011;226;48.606;9.096;2023-03-17T06:14:36;4.23;;;3.87;;
479;SDS011;226;48.606;9.096;2023-03-17T06:17:04;3.43;;;3.23;;
479;SDS011;226;48.606;9.096;2023-03-17T06:19:33;6.30;;;3.40;;
479;SDS011;226;48.606;9.096;2023-03-17T06:22:02;4.17;;;3.80;;
479;SDS011;226;48.606;9.096;2023-03-17T06:24:30;4.47;;;3.50;;
479;SDS011;226;48.606;9.096;2023-03-17T06:26:58;4.00;;;3.53;;
479;SDS011;226;48.606;9.096;2023-03-17T06:29:26;3.40;;;3.10;;
479;SDS011;226;48.606;9.096;2023-03-17T06:31:55;2.97;;;2.83;;
479;SDS011;226;48.606;9.096;2023-03-17T06:34:34;3.50;;;3.10;;
479;SDS011;226;48.606;9.096;2023-03-17T06:37:04;5.70;;;3.47;;
479;SDS011;226;48.606;9.096;2023-03-17T06:39:32;4.40;;;4.10;;
479;SDS011;226;48.606;9.096;2023-03-17T06:42:00;8.47;;;3.27;;
479;SDS011;226;48.606;9.096;2023-03-17T06:44:30;3.57;;;3.30;;
479;SDS011;226;48.606;9.096;2023-03-17T06:46:58;6.47;;;3.60;;
479;SDS011;226;48.606;9.096;2023-03-17T06:49:27;4.57;;;3.30;;
479;SDS011;226;48.606;9.096;2023-03-17T06:51:55;7.00;;;4.33;;
479;SDS011;226;48.606;9.096;2023-03-17T06:54:24;4.20;;;3.80;;
479;SDS011;226;48.606;9.096;2023-03-17T06:56:53;5.17;;;4.77;;
479;SDS011;226;48.606;9.096;2023-03-17T06:59:22;12.20;;;5.67;;
479;SDS011;226;48.606;9.096;2023-03-17T07:01:51;5.90;;;4.97;;
479;SDS011;226;48.606;9.096;2023-03-17T07:04:19;8.00;;;6.20;;
479;SDS011;226;48.606;9.096;2023-03-17T07:06:47;8.43;;;3.90;;
479;SDS011;226;48.606;9.096;2023-03-17T07:09:16;4.43;;;3.67;;
479;SDS011;226;48.606;9.096;2023-03-17T07:11:46;6.47;;;4.90;;
479;SDS011;226;48.606;9.096;2023-03-17T07:14:14;8.67;;;4.80;;
479;SDS011;226;48.606;9.096;2023-03-17T07:16:43;4.43;;;4.03;;
479;SDS011;226;48.606;9.096;2023-03-17T07:19:12;5.20;;;4.00;;
479;SDS011;226;48.606;9.096;2023-03-17T07:21:40;7.00;;;4.43;;
479;SDS011;226;48.606;9.096;2023-03-17T07:24:12;6.97;;;4.43;;
479;SDS011;226;48.606;9.096;2023-03-17T07:26:40;11.03;;;6.57;;
479;SDS011;226;48.606;9.096;2023-03-17T07:29:09;6.50;;;5.83;;
479;SDS011;226;48.606;9.096;2023-03-17T07:31:37;7.90;;;6.60;;
479;SDS011;226;48.606;9.096;2023-03-17T07:34:06;8.00;;;5.53;;
479;SDS011;226;48.606;9.096;2023-03-17T07:36:35;7.90;;;5.43;;
479;SDS011;226;48.606;9.096;2023-03-17T07:39:03;9.43;;;5.20;;
479;SDS011;226;48.606;9.096;2023-03-17T07:41:32;10.37;;;5.47;;
479;SDS011;226;48.606;9.096;2023-03-17T07:44:00;5.50;;;4.40;;
479;SDS011;226;48.606;9.096;2023-03-17T07:46:30;7.20;;;4.50;;
479;SDS011;226;48.606;9.096;2023-03-17T07:48:58;8.23;;;5.20;;
479;SDS011;226;48.606;9.096;2023-03-17T07:51:26;8.37;;;4.80;;
479;SDS011;226;48.606;9.096;2023-03-17T07:53:54;16.53;;;4.60;;
479;SDS011;226;48.606;9.096;2023-03-17T07:56:29;8.63;;;5.27;;
479;SDS011;226;48.606;9.096;2023-03-17T07:58:57;11.50;;;4.77;;
479;SDS011;226;48.606;9.096;2023-03-17T08:01:26;16.17;;;5.90;;
479;SDS011;226;48.606;9.096;2023-03-17T08:03:57;7.50;;;4.70;;
479;SDS011;226;48.606;9.096;2023-03-17T08:06:25;10.10;;;5.67;;
479;SDS011;226;48.606;9.096;2023-03-17T08:08:54;5.63;;;4.93;;
479;SDS011;226;48.606;9.096;2023-03-17T08:11:22;10.80;;;6.77;;
479;SDS011;226;48.606;9.096;2023-03-17T08:13:50;13.27;;;6.30;;
479;SDS011;226;48.606;9.096;2023-03-17T08:16:18;9.03;;;6.07;;
479;SDS011;226;48.606;9.096;2023-03-17T08:18:46;9.97;;;5.93;;
479;SDS011;226;48.606;9.096;2023-03-17T08:21:15;9.47;;;4.70;;
479;SDS011;226;48.606;9.096;2023-03-17T08:23:44;6.10;;;5.10;;
479;SDS011;226;48.606;9.096;2023-03-17T08:26:12;10.17;;;6.23;;
479;SDS011;226;48.606;9.096;2023-03-17T08:28:41;8.07;;;4.80;;
479;SDS011;226;48.606;9.096;2023-03-17T08:31:10;7.63;;;3.70;;
479;SDS011;226;48.606;9.096;2023-03-17T08:33:41;2.20;;;2.00;;
479;SDS011;226;48.606;9.096;2023-03-17T08:36:12;2.57;;;1.97;;
479;SDS011;226;48.606;9.096;2023-03-17T08:38:43;5.40;;;2.67;;
479;SDS011;226;48.606;9.096;2023-03-17T08:41:13;2.33;;;2.20;;
479;SDS011;226;48.606;9.096;2023-03-17T08:43:44;1.73;;;1.60;;
479;SDS011;226;48.606;9.096;2023-03-17T08:46:13;7.87;;;1.80;;
479;SDS011;226;48.606;9.096;2023-03-17T08:48:43;2.20;;;1.50;;
479;SDS011;226;48.606;9.096;2023-03-17T08:51:14;2.37;;;2.17;;
479;SDS011;226;48.606;9.096;2023-03-17T08:53:46;1.80;;;1.70;;
479;SDS011;226;48.606;9.096;2023-03-17T08:56:15;4.27;;;3.63;;
479;SDS011;226;48.606;9.096;2023-03-17T08:58:43;1.70;;;1.60;;
479;SDS011;226;48.606;9.096;2023-03-17T09:01:12;1.30;;;1.30;;
479;SDS011;226;48.606;9.096;2023-03-17T09:03:41;3.20;;;2.27;;
479;SDS011;226;48.606;9.096;2023-03-17T09:06:10;1.57;;;1.17;;
479;SDS011;226;48.606;9.096;2023-03-17T09:08:40;3.67;;;1.80;;
479;SDS011;226;48.606;9.096;2023-03-17T09:11:14;1.70;;;1.50;;
479;SDS011;226;48.606;9.096;2023-03-17T09:13:44;2.30;;;1.43;;
479;SDS011;226;48.606;9.096;2023-03-17T09:16:12;2.63;;;1.57;;
479;SDS011;226;48.606;9.096;2023-03-17T09:18:42;2.20;;;2.10;;
479;SDS011;226;48.606;9.096;2023-03-17T09:21:11;1.70;;;1.60;;
479;SDS011;226;48.606;9.096;2023-03-17T09:23:41;1.70;;;1.60;;
479;SDS011;226;48.606;9.096;2023-03-17T09:26:10;2.07;;;1.40;;
479;SDS011;226;48.606;9.096;2023-03-17T09:28:40;1.33;;;1.23;;
479;SDS011;226;48.606;9.096;2023-03-17T09:31:09;2.00;;;1.90;;
479;SDS011;226;48.606;9.096;2023-03-17T09:33:38;2.20;;;1.10;;
479;SDS011;226;48.606;9.096;2023-03-17T09:36:07;2.60;;;1.40;;
479;SDS011;226;48.606;9.096;2023-03-17T09:38:36;1.43;;;1.33;;
479;SDS011;226;48.606;9.096;2023-03-17T09:41:10;2.33;;;1.20;;
479;SDS011;226;48.606;9.096;2023-03-17T09:43:55;2.40;;;1.13;;
479;SDS011;226;48.606;9.096;2023-03-17T09:46:36;1.90;;;1.80;;
479;SDS011;226;48.606;9.096;2023-03-17T09:49:16;1.40;;;1.40;;
479;SDS011;226;48.606;9.096;2023-03-17T09:51:48;3.77;;;1.03;;
479;SDS011;226;48.606;9.096;2023-03-17T09:54:17;1.43;;;1.37;;
479;SDS011;226;48.606;9.096;2023-03-17T09:56:53;1.03;;;1.03;;
479;SDS011;226;48.606;9.096;2023-03-17T09:59:29;1.17;;;1.00;;
479;SDS011;226;48.606;9.096;2023-03-17T10:02:00;1.80;;;1.20;;
479;SDS011;226;48.606;9.096;2023-03-17T10:04:28;1.73;;;1.07;;
479;SDS011;226;48.606;9.096;2023-03-17T10:06:57;1.33;;;1.23;;
479;SDS011;226;48.606;9.096;2023-03-17T10:09:31;3.80;;;1.53;;
479;SDS011;226;48.606;9.096;2023-03-17T10:12:07;1.50;;;1.40;;
479;SDS011;226;48.606;9.096;2023-03-17T10:14:41;1.60;;;1.20;;
479;SDS011;226;48.606;9.096;2023-03-17T10:17:17;2.40;;;1.97;;
479;SDS011;226;48.606;9.096;2023-03-17T10:19:51;1.50;;;1.40;;
479;SDS011;226;48.606;9.096;2023-03-17T10:22:27;1.20;;;1.10;;
479;SDS011;226;48.606;9.096;2023-03-17T10:25:00;1.90;;;1.40;;
479;SDS011;226;48.606;9.096;2023-03-17T10:27:30;2.10;;;1.70;;
479;SDS011;226;48.606;9.096;2023-03-17T10:30:16;1.47;;;1.37;;
479;SDS011;226;48.606;9.096;2023-03-17T10:32:44;3.23;;;1.50;;
479;SDS011;226;48.606;9.096;2023-03-17T10:35:13;1.70;;;1.33;;
479;SDS011;226;48.606;9.096;2023-03-17T10:37:42;1.40;;;1.23;;
479;SDS011;226;48.606;9.096;2023-03-17T10:40:18;1.07;;;0.80;;
479;SDS011;226;48.606;9.096;2023-03-17T10:42:48;1.00;;;0.97;;
479;SDS011;226;48.606;9.096;2023-03-17T10:45:23;0.80;;;0.80;;
479;SDS011;226;48.606;9.096;2023-03-17T10:47:54;1.13;;;1.13;;
479;SDS011;226;48.606;9.096;2023-03-17T10:50:24;5.70;;;1.40;;
479;SDS011;226;48.606;9.096;2023-03-17T10:52:56;1.83;;;1.43;;
479;SDS011;226;48.606;9.096;2023-03-17T10:55:26;1.10;;;1.00;;
479;SDS011;226;48.606;9.096;2023-03-17T10:57:58;1.73;;;1.27;;
479;SDS011;226;48.606;9.096;2023-03-17T11:00:30;1.50;;;1.00;;
479;SDS011;226;48.606;9.096;2023-03-17T11:03:02;0.83;;;0.83;;
479;SDS011;226;48.606;9.096;2023-03-17T11:05:31;1.77;;;1.20;;
479;SDS011;226;48.606;9.096;2023-03-17T11:08:05;3.03;;;1.20;;
479;SDS011;226;48.606;9.096;2023-03-17T11:10:36;1.13;;;0.73;;
479;SDS011;226;48.606;9.096;2023-03-17T11:13:04;1.20;;;1.10;;
479;SDS011;226;48.606;9.096;2023-03-17T11:15:35;1.10;;;0.93;;
479;SDS011;226;48.606;9.096;2023-03-17T11:18:06;1.33;;;0.90;;
479;SDS011;226;48.606;9.096;2023-03-17T11:20:40;1.20;;;1.07;;
479;SDS011;226;48.606;9.096;2023-03-17T11:23:14;1.00;;;1.00;;
479;SDS011;226;48.606;9.096;2023-03-17T11:25:44;1.43;;;0.87;;
479;SDS011;226;48.606;9.096;2023-03-17T11:28:17;0.80;;;0.80;;
479;SDS011;226;48.606;9.096;2023-03-17T11:30:49;0.97;;;0.93;;
479;SDS011;226;48.606;9.096;2023-03-17T11:33:27;2.53;;;1.10;;
479;SDS011;226;48.606;9.096;2023-03-17T11:36:00;1.60;;;1.30;;
479;SDS011;226;48.606;9.096;2023-03-17T11:38:29;1.30;;;1.20;;
479;SDS011;226;48.606;9.096;2023-03-17T11:41:10;1.27;;;0.87;;
479;SDS011;226;48.606;9.096;2023-03-17T11:46:30;1.17;;;1.07;;
479;SDS011;226;48.606;9.096;2023-03-17T11:49:03;1.40;;;1.30;;
479;SDS011;226;48.606;9.096;2023-03-17T11:51:41;1.80;;;1.17;;
479;SDS011;226;48.606;9.096;2023-03-17T11:54:15;0.80;;;0.80;;
479;SDS011;226;48.606;9.096;2023-03-17T11:56:50;2.30;;;0.90;;
479;SDS011;226;48.606;9.096;2023-03-17T11:59:24;2.67;;;1.03;;
479;SDS011;226;48.606;9.096;2023-03-17T12:01:56;3.20;;;0.97;;
479;SDS011;226;48.606;9.096;2023-03-17T12:04:26;0.83;;;0.83;;
479;SDS011;226;48.606;9.096;2023-03-17T12:07:02;1.00;;;0.90;;
479;SDS011;226;48.606;9.096;2023-03-17T12:09:36;3.90;;;1.00;;
479;SDS011;226;48.606;9.096;2023-03-17T12:12:08;0.70;;;0.70;;
479;SDS011;226;48.606;9.096;2023-03-17T12:14:41;0.80;;;0.80;;
479;SDS011;226;48.606;9.096;2023-03-17T12:17:17;4.03;;;0.70;;
479;SDS011;226;48.606;9.096;2023-03-17T12:19:56;1.23;;;1.00;;
479;SDS011;226;48.606;9.096;2023-03-17T12:22:27;1.33;;;0.67;;
479;SDS011;226;48.606;9.096;2023-03-17T12:25:02;1.00;;;0.73;;
479;SDS011;226;48.606;9.096;2023-03-17T12:27:35;0.60;;;0.60;;
479;SDS011;226;48.606;9.096;2023-03-17T12:30:09;0.83;;;0.60;;
479;SDS011;226;48.606;9.096;2023-03-17T12:32:47;1.03;;;0.90;;
479;SDS011;226;48.606;9.096;2023-03-17T12:35:22;2.13;;;0.70;;
479;SDS011;226;48.606;9.096;2023-03-17T12:37:53;0.57;;;0.57;;
479;SDS011;226;48.606;9.096;2023-03-17T12:40:24;0.80;;;0.80;;
479;SDS011;226;48.606;9.096;2023-03-17T12:42:58;6.67;;;1.00;;
479;SDS011;226;48.606;9.096;2023-03-17T12:45:34;1.23;;;0.93;;
479;SDS011;226;48.606;9.096;2023-03-17T12:51:05;0.80;;;0.80;;
479;SDS011;226;48.606;9.096;2023-03-17T12:53:37;0.80;;;0.70;;
479;SDS011;226;48.606;9.096;2023-03-17T12:56:09;0.60;;;0.60;;
479;SDS011;226;48.606;9.096;2023-03-17T12:58:39;1.30;;;0.73;;
479;SDS011;226;48.606;9.096;2023-03-17T13:01:15;0.97;;;0.60;;
479;SDS011;226;48.606;9.096;2023-03-17T13:03:54;1.17;;;0.70;;
479;SDS011;226;48.606;9.096;2023-03-17T13:06:25;0.80;;;0.80;;
479;SDS011;226;48.606;9.096;2023-03-17T13:08:56;1.10;;;0.90;;
479;SDS011;226;48.606;9.096;2023-03-17T13:11:45;1.63;;;0.60;;
479;SDS011;226;48.606;9.096;2023-03-17T13:14:23;2.93;;;0.60;;
479;SDS011;226;48.606;9.096;2023-03-17T13:17:02;0.50;;;0.50;;
479;SDS011;226;48.606;9.096;2023-03-17T13:19:31;0.70;;;0.70;;
479;SDS011;226;48.606;9.096;2023-03-17T13:24:48;1.30;;;0.90;;
479;SDS011;226;48.606;9.096;2023-03-17T13:33:01;1.17;;;1.07;;
479;SDS011;226;48.606;9.096;2023-03-17T13:35:46;1.20;;;1.00;;
479;SDS011;226;48.606;9.096;2023-03-17T13:41:12;1.93;;;1.00;;
479;SDS011;226;48.606;9.096;2023-03-17T13:43:45;2.10;;;1.00;;
479;SDS011;226;48.606;9.096;2023-03-17T13:46:21;0.73;;;0.73;;
479;SDS011;226;48.606;9.096;2023-03-17T13:48:52;1.03;;;0.80;;
479;SDS011;226;48.606;9.096;2023-03-17T13:51:21;1.00;;;1.00;;
479;SDS011;226;48.606;9.096;2023-03-17T13:53:51;2.83;;;1.83;;
479;SDS011;226;48.606;9.096;2023-03-17T13:56:23;2.10;;;0.97;;
479;SDS011;226;48.606;9.096;2023-03-17T13:58:56;1.00;;;0.83;;
479;SDS011;226;48.606;9.096;2023-03-17T14:01:25;1.23;;;0.90;;
479;SDS011;226;48.606;9.096;2023-03-17T14:03:55;0.80;;;0.80;;
479;SDS011;226;48.606;9.096;2023-03-17T14:06:24;1.60;;;0.83;;
479;SDS011;226;48.606;9.096;2023-03-17T14:08:58;2.37;;;0.93;;
479;SDS011;226;48.606;9.096;2023-03-17T14:11:32;0.90;;;0.90;;
479;SDS011;226;48.606;9.096;2023-03-17T14:14:07;2.10;;;0.63;;
479;SDS011;226;48.606;9.096;2023-03-17T14:16:59;0.90;;;0.80;;
479;SDS011;226;48.606;9.096;2023-03-17T14:19:31;0.60;;;0.60;;
479;SDS011;226;48.606;9.096;2023-03-17T14:22:03;0.83;;;0.83;;
479;SDS011;226;48.606;9.096;2023-03-17T14:24:49;1.50;;;1.40;;
479;SDS011;226;48.606;9.096;2023-03-17T14:27:21;1.23;;;0.87;;
479;SDS011;226;48.606;9.096;2023-03-17T14:29:50;1.80;;;1.23;;
479;SDS011;226;48.606;9.096;2023-03-17T14:32:19;1.20;;;1.10;;
479;SDS011;226;48.606;9.096;2023-03-17T14:34:53;0.90;;;0.90;;
479;SDS011;226;48.606;9.096;2023-03-17T14:37:23;1.33;;;0.90;;
479;SDS011;226;48.606;9.096;2023-03-17T14:39:53;3.60;;;1.37;;
479;SDS011;226;48.606;9.096;2023-03-17T14:42:26;1.43;;;1.33;;
479;SDS011;226;48.606;9.096;2023-03-17T14:45:00;4.00;;;1.43;;
479;SDS011;226;48.606;9.096;2023-03-17T14:47:29;1.33;;;1.03;;
479;SDS011;226;48.606;9.096;2023-03-17T14:49:59;3.07;;;1.03;;
479;SDS011;226;48.606;9.096;2023-03-17T14:52:30;1.67;;;1.00;;
479;SDS011;226;48.606;9.096;2023-03-17T14:55:00;0.70;;;0.70;;
479;SDS011;226;48.606;9.096;2023-03-17T14:57:31;0.80;;;0.80;;
479;SDS011;226;48.606;9.096;2023-03-17T15:00:00;1.33;;;0.97;;
479;SDS011;226;48.606;9.096;2023-03-17T15:02:31;1.13;;;0.83;;
479;SDS011;226;48.606;9.096;2023-03-17T15:05:03;2.60;;;1.80;;
479;SDS011;226;48.606;9.096;2023-03-17T15:07:35;1.60;;;1.50;;
479;SDS011;226;48.606;9.096;2023-03-17T15:10:04;1.40;;;1.30;;
479;SDS011;226;48.606;9.096;2023-03-17T15:12:34;1.63;;;1.20;;
479;SDS011;226;48.606;9.096;2023-03-17T15:15:03;2.77;;;1.60;;
479;SDS011;226;48.606;9.096;2023-03-17T15:17:33;1.33;;;1.17;;
479;SDS011;226;48.606;9.096;2023-03-17T15:20:03;1.90;;;1.23;;
479;SDS011;226;48.606;9.096;2023-03-17T15:22:38;5.93;;;0.90;;
479;SDS011;226;48.606;9.096;2023-03-17T15:25:16;1.53;;;1.03;;
479;SDS011;226;48.606;9.096;2023-03-17T15:27:46;1.77;;;1.33;;
479;SDS011;226;48.606;9.096;2023-03-17T15:30:15;3.63;;;1.40;;
479;SDS011;226;48.606;9.096;2023-03-17T15:32:43;3.40;;;2.30;;
479;SDS011;226;48.606;9.096;2023-03-17T15:35:17;2.37;;;1.50;;
479;SDS011;226;48.606;9.096;2023-03-17T15:37:46;2.00;;;1.80;;
479;SDS011;226;48.606;9.096;2023-03-17T15:40:14;1.23;;;1.13;;
479;SDS011;226;48.606;9.096;2023-03-17T15:42:43;2.90;;;1.70;;
479;SDS011;226;48.606;9.096;2023-03-17T15:45:14;4.40;;;1.80;;
479;SDS011;226;48.606;9.096;2023-03-17T15:47:43;1.73;;;1.60;;
479;SDS011;226;48.606;9.096;2023-03-17T15:50:13;3.67;;;1.90;;
479;SDS011;226;48.606;9.096;2023-03-17T15:52:42;5.50;;;2.40;;
479;SDS011;226;48.606;9.096;2023-03-17T15:55:14;4.67;;;1.93;;
479;SDS011;226;48.606;9.096;2023-03-17T15:57:43;1.77;;;1.67;;
479;SDS011;226;48.606;9.096;2023-03-17T16:00:22;3.27;;;2.27;;
479;SDS011;226;48.606;9.096;2023-03-17T16:02:52;3.27;;;2.23;;
479;SDS011;226;48.606;9.096;2023-03-17T16:05:22;2.60;;;2.30;;
479;SDS011;226;48.606;9.096;2023-03-17T16:07:51;2.57;;;1.80;;
479;SDS011;226;48.606;9.096;2023-03-17T16:10:20;3.03;;;1.87;;
479;SDS011;226;48.606;9.096;2023-03-17T16:12:49;5.23;;;2.00;;
479;SDS011;226;48.606;9.096;2023-03-17T16:15:19;2.63;;;2.40;;
479;SDS011;226;48.606;9.096;2023-03-17T16:17:51;1.23;;;1.13;;
479;SDS011;226;48.606;9.096;2023-03-17T16:20:21;3.53;;;1.70;;
479;SDS011;226;48.606;9.096;2023-03-17T16:22:51;1.77;;;1.40;;